Majesty of the Seas — C6FZ8 — position and weather

sailwx.info

Track history (hours):
 
Tides and Currents Weather Stations Pressure Air Temp Water Temp Dewpoint Dewpoint Depression Visibility Wind Speed Wind Dir Waves Ship Positions

Majesty of the Seas (Bahamas)

Last reported at 2014-Sep-22 23:33 UTC. Time now 2014-Sep-23 00:22 UTC.
Position N 25°59' W 079°32'.

Length 268 m; draft 8 m.

Type: Passenger vessel. MMSI: 311734000.

Date/timePositionNaut miles runAvg speedWind from/ knotsBaromVisibWave heightAir tempDewpointWater temp
2014-Sep-22 23:33N 25°59' W 079°32'1514.8
2014-Sep-22 22:33N 25°53' W 079°47'1413.8
2014-Sep-22 21:33N 25°47' W 080°01'9 8.6
2014-Sep-22 20:33N 25°47' W 080°11'0 0.0
2014-Sep-22 19:22N 25°47' W 080°11'0 0.0
2014-Sep-22 17:25N 25°47' W 080°11'0 0.0
2014-Sep-22 15:22N 25°47' W 080°11'0 0.0
2014-Sep-22 14:25N 25°47' W 080°11'0 0.0
2014-Sep-22 13:25N 25°47' W 080°11'0 0.0
2014-Sep-22 12:25N 25°47' W 080°11'0 0.0
2014-Sep-22 11:31N 25°47' W 080°11'0 0.1
2014-Sep-22 10:33N 25°47' W 080°11'7 6.6
2014-Sep-22 09:33N 25°47' W 080°03'1211.8
2014-Sep-22 08:33N 25°51' W 079°51'1414.1
2014-Sep-22 07:33N 25°57' W 079°37'1514.3
2014-Sep-22 06:32N 26°04' W 079°23'1414.5
2014-Sep-22 05:33N 26°09' W 079°08'1715.0
2014-Sep-22 04:27N 26°08' W 078°50'7116.0
2014-Sep-22 00:00N 25°42' W 077°36'45 7.5 050 / 21016.4 29.2
2014-Sep-21 18:00N 25°00' W 077°18'18 1.5 360 / 51016.010.8 30.024.627.0
2014-Sep-21 06:00N 25°18' W 077°18'130 4.4 220 / 111014.010.8 27.024.325.0
2014-Sep-20 00:33N 26°04' W 079°33'1110.8
2014-Sep-19 23:33N 25°58' W 079°43'1110.7
2014-Sep-19 22:33N 25°53' W 079°53'1010.2
2014-Sep-19 21:33N 25°47' W 080°03'7 7.2
2014-Sep-19 20:33N 25°47' W 080°11'0 0.0
2014-Sep-19 19:29N 25°47' W 080°11'0 0.0
2014-Sep-19 18:29N 25°47' W 080°11'0 0.0
2014-Sep-19 16:29N 25°47' W 080°11'0 0.0
2014-Sep-19 15:20N 25°47' W 080°11'0 0.0
2014-Sep-19 12:32N 25°47' W 080°11'0 0.2
2014-Sep-19 10:31N 25°47' W 080°11'8 8.7
2014-Sep-19 09:34N 25°47' W 080°02'4713.1
2014-Sep-19 06:00N 25°00' W 080°00'54 2.0 999 / 21013.027.0 27.022.825.0
2014-Sep-18 02:34N 25°47' W 079°31'1916.4
2014-Sep-18 01:23N 26°01' W 079°16'1416.4
2014-Sep-18 00:34N 26°10' W 079°05'105 5.6
2014-Sep-17 06:00N 25°18' W 077°24'118 4.0 140 / 61016.027.0 27.022.825.0
2014-Sep-16 00:18N 26°03' W 079°25'1114.3
2014-Sep-15 23:33N 25°58' W 079°36'1514.9
2014-Sep-15 22:33N 25°51' W 079°50'1313.0
2014-Sep-15 21:33N 25°47' W 080°04'6 5.0
2014-Sep-15 20:19N 25°47' W 080°11'0 0.0
2014-Sep-15 19:25N 25°47' W 080°11'0 0.0
2014-Sep-15 17:28N 25°47' W 080°11'0 0.0
2014-Sep-15 16:25N 25°47' W 080°11'0 0.0
2014-Sep-15 14:25N 25°47' W 080°11'0 0.0
2014-Sep-15 13:13N 25°47' W 080°11'0 0.0
2014-Sep-15 12:31N 25°47' W 080°11'0 0.0
2014-Sep-15 11:34N 25°47' W 080°11'0 0.3
2014-Sep-15 10:29N 25°47' W 080°11'8 8.1
2014-Sep-15 09:33N 25°46' W 080°03'9 9.3
2014-Sep-15 08:33N 25°51' W 079°53'1313.2
2014-Sep-15 07:33N 25°56' W 079°40'1414.4
2014-Sep-15 06:33N 26°02' W 079°26'712.8
2014-Sep-15 06:00N 26°00' W 079°18'1227.0 110 / 91021.027.0 27.024.325.0
2014-Sep-15 05:33N 26°09' W 079°10'1515.4
2014-Sep-15 04:33N 26°08' W 078°53'1715.9
2014-Sep-15 03:28N 26°04' W 078°34'5616.2
2014-Sep-15 00:00N 25°42' W 077°36'29 1.6 070 / 91021.0 28.0
2014-Sep-14 06:00N 25°18' W 077°18'131 4.4 140 / 101020.0 27.024.325.0
2014-Sep-13 00:21N 26°02' W 079°35'910.9
2014-Sep-12 23:33N 25°58' W 079°43'  
Track history (hours):
 
Tides and Currents Weather Stations Pressure Air Temp Water Temp Dewpoint Dewpoint Depression Visibility Wind Speed Wind Dir Waves Ship Positions

Majesty of the Seas (Bahamas)

Last reported at 2014-Sep-22 23:33 UTC. Time now 2014-Sep-23 00:22 UTC.
Position N 25°59' W 079°32'.

Length 268 m; draft 8 m.

Type: Passenger vessel. MMSI: 311734000.

Date/timePositionNaut miles runAvg speedWind from/ knotsBaromVisibWave heightAir tempDewpointWater temp
2014-Sep-22 23:33N 25°59' W 079°32'1514.8
2014-Sep-22 22:33N 25°53' W 079°47'1413.8
2014-Sep-22 21:33N 25°47' W 080°01'9 8.6
2014-Sep-22 20:33N 25°47' W 080°11'0 0.0
2014-Sep-22 19:22N 25°47' W 080°11'0 0.0
2014-Sep-22 17:25N 25°47' W 080°11'0 0.0
2014-Sep-22 15:22N 25°47' W 080°11'0 0.0
2014-Sep-22 14:25N 25°47' W 080°11'0 0.0
2014-Sep-22 13:25N 25°47' W 080°11'0 0.0
2014-Sep-22 12:25N 25°47' W 080°11'0 0.0
2014-Sep-22 11:31N 25°47' W 080°11'0 0.1
2014-Sep-22 10:33N 25°47' W 080°11'7 6.6
2014-Sep-22 09:33N 25°47' W 080°03'1211.8
2014-Sep-22 08:33N 25°51' W 079°51'1414.1
2014-Sep-22 07:33N 25°57' W 079°37'1514.3
2014-Sep-22 06:32N 26°04' W 079°23'1414.5
2014-Sep-22 05:33N 26°09' W 079°08'1715.0
2014-Sep-22 04:27N 26°08' W 078°50'7116.0
2014-Sep-22 00:00N 25°42' W 077°36'45 7.5 050 / 21016.4 29.2
2014-Sep-21 18:00N 25°00' W 077°18'18 1.5 360 / 51016.010.8 30.024.627.0
2014-Sep-21 06:00N 25°18' W 077°18'130 4.4 220 / 111014.010.8 27.024.325.0
2014-Sep-20 00:33N 26°04' W 079°33'1110.8
2014-Sep-19 23:33N 25°58' W 079°43'1110.7
2014-Sep-19 22:33N 25°53' W 079°53'1010.2
2014-Sep-19 21:33N 25°47' W 080°03'7 7.2
2014-Sep-19 20:33N 25°47' W 080°11'0 0.0
2014-Sep-19 19:29N 25°47' W 080°11'0 0.0
2014-Sep-19 18:29N 25°47' W 080°11'0 0.0
2014-Sep-19 16:29N 25°47' W 080°11'0 0.0
2014-Sep-19 15:20N 25°47' W 080°11'0 0.0
2014-Sep-19 12:32N 25°47' W 080°11'0 0.2
2014-Sep-19 10:31N 25°47' W 080°11'8 8.7
2014-Sep-19 09:34N 25°47' W 080°02'4713.1
2014-Sep-19 06:00N 25°00' W 080°00'54 2.0 999 / 21013.027.0 27.022.825.0
2014-Sep-18 02:34N 25°47' W 079°31'1916.4
2014-Sep-18 01:23N 26°01' W 079°16'1416.4
2014-Sep-18 00:34N 26°10' W 079°05'105 5.6
2014-Sep-17 06:00N 25°18' W 077°24'118 4.0 140 / 61016.027.0 27.022.825.0
2014-Sep-16 00:18N 26°03' W 079°25'1114.3
2014-Sep-15 23:33N 25°58' W 079°36'1514.9
2014-Sep-15 22:33N 25°51' W 079°50'1313.0
2014-Sep-15 21:33N 25°47' W 080°04'6 5.0
2014-Sep-15 20:19N 25°47' W 080°11'0 0.0
2014-Sep-15 19:25N 25°47' W 080°11'0 0.0
2014-Sep-15 17:28N 25°47' W 080°11'0 0.0
2014-Sep-15 16:25N 25°47' W 080°11'0 0.0
2014-Sep-15 14:25N 25°47' W 080°11'0 0.0
2014-Sep-15 13:13N 25°47' W 080°11'0 0.0
2014-Sep-15 12:31N 25°47' W 080°11'0 0.0
2014-Sep-15 11:34N 25°47' W 080°11'0 0.3
2014-Sep-15 10:29N 25°47' W 080°11'8 8.1
2014-Sep-15 09:33N 25°46' W 080°03'9 9.3
2014-Sep-15 08:33N 25°51' W 079°53'1313.2
2014-Sep-15 07:33N 25°56' W 079°40'1414.4
2014-Sep-15 06:33N 26°02' W 079°26'712.8
2014-Sep-15 06:00N 26°00' W 079°18'1227.0 110 / 91021.027.0 27.024.325.0
2014-Sep-15 05:33N 26°09' W 079°10'1515.4
2014-Sep-15 04:33N 26°08' W 078°53'1715.9
2014-Sep-15 03:28N 26°04' W 078°34'5616.2
2014-Sep-15 00:00N 25°42' W 077°36'29 1.6 070 / 91021.0 28.0
2014-Sep-14 06:00N 25°18' W 077°18'131 4.4 140 / 101020.0 27.024.325.0
2014-Sep-13 00:21N 26°02' W 079°35'910.9
2014-Sep-12 23:33N 25°58' W 079°43'  

Dump ship's entire track history